createdAt,value
2023-01-09T00:02:33.963Z,3.07
2023-01-09T00:06:37.351Z,4.13
2023-01-09T00:10:40.175Z,3.40
2023-01-09T00:14:44.193Z,3.17
2023-01-09T00:18:48.290Z,3.50
2023-01-09T00:22:51.031Z,2.73
2023-01-09T00:26:53.732Z,4.33
2023-01-09T00:30:57.440Z,2.30
2023-01-09T00:35:01.612Z,4.50
2023-01-09T00:39:04.877Z,3.00
2023-01-09T00:43:07.680Z,2.87
2023-01-09T00:47:15.879Z,3.40
2023-01-09T00:51:21.332Z,3.20
2023-01-09T00:55:24.481Z,5.93
2023-01-09T00:59:28.771Z,3.60
2023-01-09T01:03:31.520Z,3.30
2023-01-09T01:07:41.442Z,3.57
2023-01-09T01:11:44.178Z,2.47
2023-01-09T01:15:47.855Z,3.17
2023-01-09T01:19:50.588Z,2.73
2023-01-09T01:23:54.711Z,3.20
2023-01-09T01:27:57.496Z,3.33
2023-01-09T01:32:00.239Z,3.33
2023-01-09T01:36:04.774Z,2.70
2023-01-09T01:40:12.507Z,2.20
2023-01-09T01:44:52.630Z,2.77
2023-01-09T01:48:58.768Z,2.57
2023-01-09T01:53:08.318Z,2.80
2023-01-09T01:57:13.138Z,3.13
2023-01-09T02:01:16.567Z,3.87
2023-01-09T02:05:20.366Z,3.20
2023-01-09T02:09:25.249Z,3.40
2023-01-09T02:13:30.241Z,3.30
2023-01-09T02:18:10.231Z,3.80
2023-01-09T02:22:22.972Z,2.20
2023-01-09T02:26:38.958Z,2.87
2023-01-09T02:30:47.568Z,2.53
2023-01-09T02:35:00.006Z,2.70
2023-01-09T02:39:16.987Z,2.47
2023-01-09T02:43:20.620Z,2.10
2023-01-09T02:47:42.943Z,2.57
2023-01-09T02:51:52.889Z,2.30
2023-01-09T02:56:06.136Z,2.50
2023-01-09T03:00:17.514Z,2.40
2023-01-09T03:04:31.468Z,2.50
2023-01-09T03:08:40.031Z,2.30
2023-01-09T03:12:44.567Z,2.50
2023-01-09T03:16:52.089Z,2.77
2023-01-09T03:20:56.667Z,2.50
2023-01-09T03:24:59.446Z,3.17
2023-01-09T03:29:02.481Z,2.53
2023-01-09T03:33:05.281Z,2.10
2023-01-09T03:37:09.347Z,2.40
2023-01-09T03:41:12.189Z,2.90
2023-01-09T03:45:15.170Z,2.23
2023-01-09T03:49:19.066Z,4.60
2023-01-09T03:53:24.723Z,3.47
2023-01-09T03:57:27.456Z,2.43
2023-01-09T04:01:30.267Z,2.37
2023-01-09T04:05:33.085Z,3.20
2023-01-09T04:09:37.149Z,3.23
2023-01-09T04:13:39.943Z,5.60
2023-01-09T04:17:42.768Z,2.93
2023-01-09T04:21:45.520Z,2.40
2023-01-09T04:25:49.646Z,4.17
2023-01-09T04:29:52.390Z,2.60
2023-01-09T04:33:55.161Z,2.73
2023-01-09T04:37:57.881Z,4.13
2023-01-09T04:42:02.047Z,3.07
2023-01-09T04:46:04.846Z,3.13
2023-01-09T04:50:08.182Z,3.10
2023-01-09T04:54:11.391Z,4.40
2023-01-09T04:58:15.502Z,2.90
2023-01-09T05:02:18.293Z,3.60
2023-01-09T05:06:20.995Z,4.87
2023-01-09T05:10:23.738Z,4.23
2023-01-09T05:14:27.860Z,4.00
2023-01-09T05:18:30.776Z,3.63
2023-01-09T05:22:33.580Z,3.53
2023-01-09T05:26:36.348Z,3.47
2023-01-09T05:30:40.534Z,3.60
2023-01-09T05:34:43.292Z,4.83
2023-01-09T05:38:46.051Z,3.30
2023-01-09T05:42:48.799Z,4.33
2023-01-09T05:46:52.914Z,5.73
2023-01-09T05:50:55.689Z,4.90
2023-01-09T05:54:58.408Z,5.07
2023-01-09T05:59:01.153Z,7.43
2023-01-09T06:03:05.445Z,7.23
2023-01-09T06:07:08.283Z,6.27
2023-01-09T06:11:10.997Z,5.37
2023-01-09T06:15:15.381Z,5.70
2023-01-09T06:19:19.511Z,5.73
2023-01-09T06:23:22.223Z,4.20
2023-01-09T06:27:24.918Z,4.20
2023-01-09T06:31:27.801Z,7.87
2023-01-09T06:35:31.829Z,4.17
2023-01-09T06:39:34.572Z,4.30
2023-01-09T06:43:37.330Z,5.03
2023-01-09T06:47:40.313Z,5.73
2023-01-09T06:51:44.505Z,4.07
2023-01-09T06:55:48.105Z,8.33
2023-01-09T06:59:50.904Z,6.17
2023-01-09T07:03:53.673Z,5.20
2023-01-09T07:07:57.902Z,4.17
2023-01-09T07:12:00.603Z,4.23
2023-01-09T07:16:05.383Z,5.03
2023-01-09T07:20:09.817Z,5.53
2023-01-09T07:24:13.901Z,5.47
2023-01-09T07:28:16.607Z,5.90
2023-01-09T07:32:19.337Z,4.20
2023-01-09T07:36:22.367Z,6.03
2023-01-09T07:40:26.998Z,7.33
2023-01-09T07:44:30.100Z,4.60
2023-01-09T07:48:32.872Z,7.87
2023-01-09T07:52:35.890Z,2.83
2023-01-09T07:56:40.522Z,4.23
2023-01-09T08:00:43.443Z,3.97
2023-01-09T08:04:47.015Z,4.00
2023-01-09T08:08:50.012Z,3.60
2023-01-09T08:12:54.460Z,7.03
2023-01-09T08:16:57.572Z,5.27
2023-01-09T08:21:00.773Z,3.83
2023-01-09T08:25:04.016Z,4.90
2023-01-09T08:29:08.221Z,4.63
2023-01-09T08:33:11.173Z,3.67
2023-01-09T08:37:14.067Z,9.53
2023-01-09T08:41:34.830Z,3.77
2023-01-09T08:45:56.934Z,6.57
2023-01-09T08:50:00.010Z,5.03
2023-01-09T08:54:02.934Z,4.23
2023-01-09T08:58:05.925Z,6.27
2023-01-09T09:02:10.445Z,7.30
2023-01-09T09:06:13.474Z,7.70
2023-01-09T09:10:17.283Z,3.40
2023-01-09T09:14:37.655Z,6.67
2023-01-09T09:18:43.183Z,7.13
2023-01-09T09:22:46.867Z,7.53
2023-01-09T09:26:50.555Z,6.90
2023-01-09T09:30:53.578Z,5.90
2023-01-09T09:34:57.914Z,3.77
2023-01-09T09:39:02.529Z,4.40
2023-01-09T09:44:12.788Z,4.77
2023-01-09T09:48:32.179Z,6.57
2023-01-09T09:52:44.900Z,4.43
2023-01-09T09:56:52.737Z,5.17
2023-01-09T10:00:56.915Z,7.70
2023-01-09T10:05:04.961Z,7.60
2023-01-09T10:09:17.894Z,7.10
2023-01-09T10:13:41.157Z,6.50
2023-01-09T10:17:56.649Z,6.53
2023-01-09T10:22:08.086Z,6.27
2023-01-09T10:26:21.933Z,8.43
2023-01-09T10:30:33.644Z,7.20
2023-01-09T10:34:50.871Z,8.03
2023-01-09T10:38:58.372Z,6.53
2023-01-09T10:43:08.165Z,5.43
2023-01-09T10:47:17.339Z,7.33
2023-01-09T10:51:25.335Z,3.90
2023-01-09T10:55:36.266Z,5.73
2023-01-09T10:59:41.648Z,4.53
2023-01-09T11:03:44.669Z,5.50
2023-01-09T11:07:52.330Z,3.63
2023-01-09T11:11:55.461Z,4.50
2023-01-09T11:16:09.055Z,5.63
2023-01-09T11:20:17.958Z,6.33
2023-01-09T11:24:30.877Z,5.30
2023-01-09T11:28:34.178Z,8.50
2023-01-09T11:32:39.676Z,7.10
2023-01-09T11:36:43.011Z,9.67
2023-01-09T11:40:50.069Z,6.93
2023-01-09T11:44:58.997Z,6.93
2023-01-09T11:49:05.463Z,6.87
2023-01-09T11:53:18.902Z,7.60
2023-01-09T11:57:23.555Z,2.53
2023-01-09T12:01:52.110Z,2.97
2023-01-09T12:06:04.410Z,2.03
2023-01-09T12:10:27.715Z,2.00
2023-01-09T12:14:46.907Z,2.40
2023-01-09T12:19:01.445Z,2.23
2023-01-09T12:23:21.541Z,2.80
2023-01-09T12:27:40.849Z,4.13
2023-01-09T12:31:59.186Z,4.90
2023-01-09T12:36:15.196Z,4.53
2023-01-09T12:40:37.067Z,5.20
2023-01-09T12:45:00.421Z,7.67
2023-01-09T12:49:31.389Z,4.70
2023-01-09T12:53:42.305Z,6.07
2023-01-09T12:57:51.457Z,4.10
2023-01-09T13:01:55.264Z,6.73
2023-01-09T13:05:59.474Z,4.60
2023-01-09T13:10:08.577Z,6.10
2023-01-09T13:14:18.867Z,4.90
2023-01-09T13:18:28.610Z,5.87
2023-01-09T13:22:31.527Z,7.60
2023-01-09T13:26:39.108Z,6.60
2023-01-09T13:31:09.371Z,6.30
2023-01-09T13:35:14.626Z,9.33
2023-01-09T13:39:24.425Z,7.13
2023-01-09T13:43:27.493Z,11.60
2023-01-09T13:47:32.800Z,14.33
2023-01-09T13:51:57.811Z,8.33
2023-01-09T13:56:07.124Z,4.37
2023-01-09T14:00:47.583Z,5.87
2023-01-09T14:04:52.067Z,5.03
2023-01-09T14:09:13.748Z,5.67
2023-01-09T14:13:19.637Z,4.30
2023-01-09T14:17:32.464Z,5.63
2023-01-09T14:21:52.117Z,5.53
2023-01-09T14:25:56.172Z,8.97
2023-01-09T14:30:28.054Z,6.43
2023-01-09T14:34:36.564Z,6.67
2023-01-09T14:38:44.831Z,8.33
2023-01-09T14:42:52.783Z,8.33
2023-01-09T14:46:57.294Z,6.83
2023-01-09T14:51:01.320Z,5.87
2023-01-09T14:55:18.586Z,5.57
2023-01-09T14:59:22.689Z,6.10
2023-01-09T15:03:30.468Z,4.33
2023-01-09T15:07:40.507Z,7.23
2023-01-09T15:11:45.527Z,5.07
2023-01-09T15:15:50.197Z,5.60
2023-01-09T15:19:53.804Z,3.17
2023-01-09T15:24:11.783Z,4.80
2023-01-09T15:28:25.973Z,5.17
2023-01-09T15:32:30.890Z,4.13
2023-01-09T15:36:38.606Z,7.37
2023-01-09T15:40:41.676Z,5.63
2023-01-09T15:44:49.814Z,3.83
2023-01-09T15:48:55.030Z,8.23
2023-01-09T15:52:58.858Z,7.93
2023-01-09T15:57:35.752Z,7.73
2023-01-09T16:01:41.613Z,9.97
2023-01-09T16:05:47.319Z,12.73
2023-01-09T16:09:52.903Z,14.03
2023-01-09T16:13:57.693Z,12.20
2023-01-09T16:18:19.139Z,10.80
2023-01-09T16:22:24.298Z,11.07
2023-01-09T16:26:28.475Z,17.00
2023-01-09T16:30:31.455Z,13.87
2023-01-09T16:34:37.180Z,13.13
2023-01-09T16:38:42.615Z,15.53
2023-01-09T16:43:01.883Z,16.23
2023-01-09T16:47:05.050Z,13.97
2023-01-09T16:51:15.455Z,9.23
2023-01-09T16:55:18.434Z,16.47
2023-01-09T16:59:24.556Z,16.80
2023-01-09T17:03:28.027Z,33.57
2023-01-09T17:07:34.434Z,37.10
2023-01-09T17:11:39.327Z,10.23
2023-01-09T17:15:42.287Z,9.93
2023-01-09T17:19:46.587Z,19.07
2023-01-09T17:24:12.082Z,13.03
2023-01-09T17:28:33.917Z,12.43
2023-01-09T17:32:36.883Z,8.83
2023-01-09T17:36:41.595Z,9.57
2023-01-09T17:40:46.953Z,14.77
2023-01-09T17:44:49.868Z,19.53
2023-01-09T17:48:54.140Z,19.13
2023-01-09T17:52:57.348Z,21.10
2023-01-09T17:57:02.864Z,16.93
2023-01-09T18:01:06.029Z,12.03
2023-01-09T18:05:09.556Z,15.80
2023-01-09T18:09:17.055Z,15.77
2023-01-09T18:13:21.503Z,13.60
2023-01-09T18:17:24.522Z,14.90
2023-01-09T18:21:29.435Z,13.30
2023-01-09T18:25:32.415Z,13.77
2023-01-09T18:29:37.089Z,20.73
2023-01-09T18:33:41.164Z,23.13
2023-01-09T18:37:44.212Z,22.00
2023-01-09T18:41:47.196Z,21.83
2023-01-09T18:45:55.023Z,18.93
2023-01-09T18:49:58.094Z,22.87
2023-01-09T18:54:01.738Z,14.80
2023-01-09T18:58:07.586Z,25.97
2023-01-09T19:02:20.446Z,20.20
2023-01-09T19:06:23.653Z,22.40
2023-01-09T19:10:26.582Z,20.47
2023-01-09T19:14:29.792Z,19.20
2023-01-09T19:18:39.263Z,20.73
2023-01-09T19:22:41.960Z,20.13
2023-01-09T19:26:46.422Z,17.07
2023-01-09T19:30:55.580Z,19.13
2023-01-09T19:34:59.976Z,21.07
2023-01-09T19:39:04.722Z,17.70
2023-01-09T19:43:07.743Z,16.97
2023-01-09T19:47:11.932Z,19.67
2023-01-09T19:51:18.771Z,27.53
2023-01-09T19:55:22.183Z,30.73
2023-01-09T19:59:25.025Z,43.87
2023-01-09T20:03:28.377Z,39.60
2023-01-09T20:07:32.610Z,18.13
2023-01-09T20:11:35.531Z,16.70
2023-01-09T20:15:40.564Z,20.13
2023-01-09T20:19:45.463Z,19.63
2023-01-09T20:23:50.939Z,16.30
2023-01-09T20:27:53.879Z,17.90
2023-01-09T20:31:56.961Z,16.50
2023-01-09T20:36:01.613Z,19.13
2023-01-09T20:40:06.912Z,19.53
2023-01-09T20:44:14.236Z,13.00
2023-01-09T20:48:17.175Z,13.93
2023-01-09T20:52:22.538Z,13.17
2023-01-09T20:56:28.755Z,9.03
2023-01-09T21:00:32.409Z,6.77
2023-01-09T21:04:35.356Z,8.07
2023-01-09T21:08:38.616Z,4.47
2023-01-09T21:12:44.462Z,5.37
2023-01-09T21:16:54.684Z,3.57
2023-01-09T21:20:58.355Z,4.37
2023-01-09T21:25:01.625Z,3.03
2023-01-09T21:29:08.212Z,4.47
2023-01-09T21:33:12.378Z,2.33
2023-01-09T21:37:16.692Z,3.27
2023-01-09T21:41:39.599Z,4.87
2023-01-09T21:46:01.318Z,4.87
2023-01-09T21:50:04.838Z,4.77
2023-01-09T21:54:08.053Z,2.60
2023-01-09T21:58:11.518Z,4.43
2023-01-09T22:02:16.778Z,4.23
2023-01-09T22:06:19.869Z,5.80
2023-01-09T22:10:22.921Z,4.40
2023-01-09T22:14:25.792Z,6.57
2023-01-09T22:18:30.296Z,10.20
2023-01-09T22:22:32.996Z,13.60
2023-01-09T22:26:36.217Z,12.87
2023-01-09T22:30:41.261Z,12.77
2023-01-09T22:34:47.245Z,9.27
2023-01-09T22:38:52.163Z,5.50
2023-01-09T22:42:55.761Z,24.93
2023-01-09T22:47:00.298Z,13.90
2023-01-09T22:51:06.476Z,11.77
2023-01-09T22:55:11.355Z,13.93
2023-01-09T22:59:15.691Z,12.70
2023-01-09T23:03:18.726Z,14.57
2023-01-09T23:07:23.459Z,16.53
2023-01-09T23:11:46.713Z,12.57
2023-01-09T23:15:49.886Z,12.40
2023-01-09T23:19:53.656Z,14.83
2023-01-09T23:23:59.974Z,14.93
2023-01-09T23:28:02.868Z,12.00
2023-01-09T23:32:06.435Z,14.50
2023-01-09T23:36:10.343Z,14.00
2023-01-09T23:40:14.671Z,18.40
2023-01-09T23:44:19.645Z,14.57
2023-01-09T23:48:25.463Z,17.03
2023-01-09T23:52:31.320Z,13.13
2023-01-09T23:56:36.065Z,12.83
